Time;durP1;ratioP1;P1;durP2;ratioP2;P2;SDS_P1;SDS_P2;PMS_P1;PMS_P2;Temp;Humidity;BMP_temperature;BMP_pressure;BME280_temperature;BME280_humidity;BME280_pressure;Samples;Min_cycle;Max_cycle;Signal;HPM_P1;HPM_P2
2023/07/14 03:00:36;;;;;;;;;;;26.80;36.00;;;;;;6008031;23;45951;31
2023/07/14 03:03:02;;;;;;;;;;;26.80;36.00;;;;;;4872224;28;46579;-67
2023/07/14 03:05:28;;;;;;;;;;;26.90;36.00;;;;;;4863885;29;45200;-66
2023/07/14 03:07:54;;;;;;;;;;;26.90;36.00;;;;;;4886704;28;45177;-65
2023/07/14 03:10:20;;;;;;;;;;;26.90;36.00;;;;;;4821200;29;45398;-66
2023/07/14 03:12:45;;;;;;;;;;;26.90;35.90;;;;;;4860177;28;45413;-65
2023/07/14 03:15:11;;;;;;;;;;;26.90;35.80;;;;;;4862729;29;45080;-65
2023/07/14 03:17:36;;;;;;;;;;;26.90;35.80;;;;;;4857871;28;44995;-66
2023/07/14 03:20:02;;;;;;;;;;;27.00;35.80;;;;;;4830048;29;45172;-66
2023/07/14 03:22:30;;;;;;;;;;;26.90;35.80;;;;;;4847081;28;46233;-66
2023/07/14 03:25:00;;;;;;;;;;;26.90;35.90;;;;;;4862674;29;45230;-66
2023/07/14 03:27:26;;;;;;;;;;;26.90;35.90;;;;;;4858847;28;45122;-66
2023/07/14 03:29:51;;;;;;;;;;;26.80;36.60;;;;;;4863119;29;44990;-66
2023/07/14 03:32:17;;;;;;;;;;;26.80;36.00;;;;;;4854441;28;45493;-66
2023/07/14 03:34:42;;;;;;;;;;;26.80;36.00;;;;;;4861812;29;44795;-66
2023/07/14 03:37:08;;;;;;;;;;;26.80;36.00;;;;;;4845175;29;45363;-66
2023/07/14 03:39:33;;;;;;;;;;;26.80;36.00;;;;;;4865106;28;45004;-65
2023/07/14 03:42:00;;;;;;;;;;;26.80;36.00;;;;;;4856133;28;45398;-66
2023/07/14 03:44:25;;;;;;;;;;;26.80;35.90;;;;;;4847811;28;45229;-66
2023/07/14 03:46:51;;;;;;;;;;;26.80;36.00;;;;;;4836650;28;45096;-66
2023/07/14 03:49:17;;;;;;;;;;;26.80;35.90;;;;;;4864206;28;44989;-66
2023/07/14 03:51:42;;;;;;;;;;;26.80;36.00;;;;;;4861344;28;45418;-65
2023/07/14 03:54:08;;;;;;;;;;;26.80;35.90;;;;;;4866255;28;44945;-66
2023/07/14 03:56:34;;;;;;;;;;;26.70;36.00;;;;;;4841891;28;45483;-66
2023/07/14 03:58:59;;;;;;;;;;;26.80;36.10;;;;;;4860688;28;44944;-66
2023/07/14 04:01:28;;;;;;;;;;;26.70;36.20;;;;;;4852221;29;45853;-66
2023/07/14 04:03:54;;;;;;;;;;;26.70;36.20;;;;;;4862253;28;44935;-66
2023/07/14 04:06:19;;;;;;;;;;;26.70;36.10;;;;;;4847361;29;45013;-66
2023/07/14 04:08:44;;;;;;;;;;;26.70;36.10;;;;;;4843033;29;44914;-66
2023/07/14 04:11:10;;;;;;;;;;;26.70;36.20;;;;;;4859594;29;45450;-66
2023/07/14 04:13:36;;;;;;;;;;;26.70;36.30;;;;;;4848386;29;45218;-66
2023/07/14 04:16:07;;;;;;;;;;;26.60;36.20;;;;;;4857381;29;45241;-66
2023/07/14 04:18:33;;;;;;;;;;;26.60;36.30;;;;;;4847488;29;46718;-65
2023/07/14 04:21:02;;;;;;;;;;;26.60;36.30;;;;;;4861765;28;45345;-66
2023/07/14 04:23:27;;;;;;;;;;;26.60;36.30;;;;;;4857472;28;45082;-66
2023/07/14 04:25:53;;;;;;;;;;;26.60;36.30;;;;;;4844103;29;44986;-65
2023/07/14 04:28:19;;;;;;;;;;;26.70;36.40;;;;;;4856312;28;45147;-69
2023/07/14 04:30:51;;;;;;;;;;;26.70;36.50;;;;;;4854420;29;44998;-65
2023/07/14 04:33:17;;;;;;;;;;;26.60;36.60;;;;;;4855794;28;44914;-65
2023/07/14 04:35:42;;;;;;;;;;;26.60;36.70;;;;;;4848742;28;45040;-66
2023/07/14 04:38:08;;;;;;;;;;;26.60;36.70;;;;;;4863819;28;45594;-66
2023/07/14 04:40:36;;;;;;;;;;;26.60;36.70;;;;;;4867315;28;45409;-66
2023/07/14 04:43:02;;;;;;;;;;;26.60;36.70;;;;;;4865912;28;45238;-66
2023/07/14 04:45:27;;;;;;;;;;;26.60;36.70;;;;;;4848844;28;46012;-65
2023/07/14 04:47:53;;;;;;;;;;;26.60;36.90;;;;;;4832502;29;45257;-66
2023/07/14 04:50:18;;;;;;;;;;;26.60;36.90;;;;;;4856897;28;45555;-66
2023/07/14 04:52:44;;;;;;;;;;;26.60;37.10;;;;;;4838637;28;45178;-66
2023/07/14 04:55:09;;;;;;;;;;;26.60;37.10;;;;;;4868403;28;45165;-66
2023/07/14 04:57:35;;;;;;;;;;;26.60;37.20;;;;;;4864360;29;45414;-66
2023/07/14 05:00:00;;;;;;;;;;;26.60;37.40;;;;;;4868911;28;45166;-66
2023/07/14 05:02:26;;;;;;;;;;;26.50;37.40;;;;;;4860652;28;45158;-65
2023/07/14 05:05:08;;;;;;;;;;;26.50;37.60;;;;;;4862780;29;45285;-66
2023/07/14 05:07:33;;;;;;;;;;;26.50;37.60;;;;;;4847559;28;44921;-65
2023/07/14 05:09:59;;;;;;;;;;;26.50;37.70;;;;;;4866345;28;45534;-66
2023/07/14 05:12:24;;;;;;;;;;;26.50;37.80;;;;;;4868474;28;46081;-65
2023/07/14 05:14:50;;;;;;;;;;;26.50;38.00;;;;;;4874755;28;45029;-66
2023/07/14 05:17:15;;;;;;;;;;;26.40;38.00;;;;;;4862149;28;44787;-66
2023/07/14 05:19:41;;;;;;;;;;;26.50;38.20;;;;;;4867723;28;45615;-68
2023/07/14 05:22:06;;;;;;;;;;;26.50;38.30;;;;;;4837817;29;45561;-65
2023/07/14 05:24:32;;;;;;;;;;;26.50;38.30;;;;;;4868068;28;44976;-66
2023/07/14 05:26:59;;;;;;;;;;;26.50;38.40;;;;;;4862639;28;45074;-66
2023/07/14 05:29:25;;;;;;;;;;;26.50;38.30;;;;;;4868818;28;45444;-66
2023/07/14 05:31:50;;;;;;;;;;;26.60;38.20;;;;;;4864691;28;45077;-66
2023/07/14 05:34:16;;;;;;;;;;;26.70;38.20;;;;;;4869644;28;45290;-66
2023/07/14 05:36:41;;;;;;;;;;;26.70;38.20;;;;;;4860046;28;45424;-65
2023/07/14 05:39:07;;;;;;;;;;;26.70;38.30;;;;;;4870849;28;45305;-66
2023/07/14 05:41:32;;;;;;;;;;;26.70;38.20;;;;;;4841217;29;45266;-66
2023/07/14 05:43:58;;;;;;;;;;;26.90;38.10;;;;;;4870650;28;44952;-66
2023/07/14 05:46:23;;;;;;;;;;;26.90;38.00;;;;;;4851505;28;45085;-66
2023/07/14 05:48:49;;;;;;;;;;;26.90;38.20;;;;;;4866342;29;46155;-66
2023/07/14 05:51:14;;;;;;;;;;;26.90;38.40;;;;;;4864995;28;45393;-66
2023/07/14 05:53:40;;;;;;;;;;;26.80;38.30;;;;;;4862284;28;44952;-66
2023/07/14 05:56:05;;;;;;;;;;;26.80;38.40;;;;;;4870268;28;45522;-66
2023/07/14 05:58:31;;;;;;;;;;;26.90;38.40;;;;;;4850431;28;45475;-65
2023/07/14 06:00:56;;;;;;;;;;;26.90;38.40;;;;;;4859993;28;45494;-66
2023/07/14 06:03:22;;;;;;;;;;;26.90;38.50;;;;;;4870294;28;44761;-66
2023/07/14 06:05:48;;;;;;;;;;;26.90;38.60;;;;;;4864134;28;45064;-66
2023/07/14 06:08:13;;;;;;;;;;;26.90;38.70;;;;;;4867102;28;45226;-66
2023/07/14 06:10:39;;;;;;;;;;;26.90;38.70;;;;;;4862806;28;44984;-66
2023/07/14 06:13:04;;;;;;;;;;;26.90;38.60;;;;;;4868754;28;45244;-65
2023/07/14 06:15:30;;;;;;;;;;;26.90;38.60;;;;;;4862928;28;45064;-66
2023/07/14 06:17:56;;;;;;;;;;;26.90;38.70;;;;;;4859258;29;45553;-65
2023/07/14 06:20:21;;;;;;;;;;;26.90;38.80;;;;;;4848360;28;44940;-66
2023/07/14 06:22:48;;;;;;;;;;;26.90;38.70;;;;;;4865527;28;44909;-66
2023/07/14 06:25:14;;;;;;;;;;;26.90;38.80;;;;;;4857219;28;45114;-66
2023/07/14 06:27:39;;;;;;;;;;;27.00;38.80;;;;;;4867049;28;45699;-65
2023/07/14 06:30:05;;;;;;;;;;;27.00;38.70;;;;;;4865691;28;45056;-66
2023/07/14 06:32:31;;;;;;;;;;;27.00;38.60;;;;;;4875231;28;44936;-66
2023/07/14 06:34:56;;;;;;;;;;;27.00;38.70;;;;;;4867094;28;44868;-66
2023/07/14 06:37:24;;;;;;;;;;;27.00;38.70;;;;;;4861674;28;45474;-65
2023/07/14 06:39:49;;;;;;;;;;;27.00;38.60;;;;;;4867942;29;45786;-65
2023/07/14 06:42:16;;;;;;;;;;;27.10;38.60;;;;;;4857365;28;45143;-66
2023/07/14 06:44:42;;;;;;;;;;;27.10;38.50;;;;;;4856788;28;44999;-66
2023/07/14 06:47:08;;;;;;;;;;;27.10;38.70;;;;;;4860046;28;46311;-66
2023/07/14 06:49:33;;;;;;;;;;;27.10;38.70;;;;;;4868060;28;44885;-65
2023/07/14 06:51:59;;;;;;;;;;;27.10;38.70;;;;;;4862131;28;45014;-66
2023/07/14 06:54:24;;;;;;;;;;;27.10;38.60;;;;;;4866900;28;44927;-66
2023/07/14 06:56:50;;;;;;;;;;;27.10;38.80;;;;;;4841238;28;47014;-66
2023/07/14 06:59:15;;;;;;;;;;;27.10;38.70;;;;;;4867493;28;44999;-65
2023/07/14 07:01:41;;;;;;;;;;;27.00;38.90;;;;;;4858887;28;45151;-66
2023/07/14 07:04:06;;;;;;;;;;;27.00;39.00;;;;;;4850954;28;45236;-66
2023/07/14 07:06:32;;;;;;;;;;;27.00;39.00;;;;;;4859542;28;45340;-65
2023/07/14 07:08:57;;;;;;;;;;;27.00;39.00;;;;;;4847694;29;45033;-66
2023/07/14 07:11:23;;;;;;;;;;;27.00;39.10;;;;;;4859418;28;45157;-66
2023/07/14 07:13:48;;;;;;;;;;;27.00;39.00;;;;;;4862456;28;45113;-66
2023/07/14 07:16:14;;;;;;;;;;;27.00;39.10;;;;;;4857178;28;46325;-66
2023/07/14 07:18:40;;;;;;;;;;;27.00;39.10;;;;;;4862455;28;45148;-66
2023/07/14 07:21:07;;;;;;;;;;;27.00;39.20;;;;;;4865898;28;44900;-66
2023/07/14 07:23:33;;;;;;;;;;;26.90;39.40;;;;;;4867928;29;44869;-67
2023/07/14 07:25:58;;;;;;;;;;;26.90;39.40;;;;;;4861762;28;45260;-66
2023/07/14 07:28:24;;;;;;;;;;;26.90;39.40;;;;;;4854401;28;44919;-65
2023/07/14 07:30:49;;;;;;;;;;;26.90;39.50;;;;;;4857799;28;44777;-66
2023/07/14 07:33:15;;;;;;;;;;;26.90;39.50;;;;;;4864973;28;45212;-66
2023/07/14 07:35:43;;;;;;;;;;;26.90;39.50;;;;;;4863281;28;45483;-66
2023/07/14 07:38:10;;;;;;;;;;;26.90;39.50;;;;;;4852221;28;44997;-66
2023/07/14 07:40:39;;;;;;;;;;;27.00;39.40;;;;;;4863845;28;45327;-66
2023/07/14 07:43:04;;;;;;;;;;;27.00;39.20;;;;;;4866800;29;44978;-66
2023/07/14 07:45:30;;;;;;;;;;;27.00;39.20;;;;;;4850916;28;45370;-66
2023/07/14 07:47:56;;;;;;;;;;;27.00;39.00;;;;;;4864363;28;45051;-66
2023/07/14 07:50:21;;;;;;;;;;;27.10;38.90;;;;;;4861726;28;45198;-65
2023/07/14 07:52:47;;;;;;;;;;;27.10;38.70;;;;;;4866262;28;45243;-65
2023/07/14 07:55:12;;;;;;;;;;;27.10;38.40;;;;;;4865583;28;46832;-66
2023/07/14 07:57:38;;;;;;;;;;;27.10;38.40;;;;;;4849138;28;44786;-65
2023/07/14 08:00:04;;;;;;;;;;;27.10;38.30;;;;;;4858696;28;44977;-66
2023/07/14 08:02:30;;;;;;;;;;;27.20;38.20;;;;;;4811750;29;45029;-64
2023/07/14 08:04:55;;;;;;;;;;;27.20;38.10;;;;;;4865249;28;45582;-64
2023/07/14 08:07:21;;;;;;;;;;;27.20;37.80;;;;;;4847449;28;45083;-64
2023/07/14 08:09:47;;;;;;;;;;;27.30;37.80;;;;;;4864240;28;44828;-64
2023/07/14 08:12:13;;;;;;;;;;;27.20;37.70;;;;;;4862575;28;45530;-64
2023/07/14 08:14:49;;;;;;;;;;;27.30;37.50;;;;;;4858612;28;45428;-64
2023/07/14 08:17:14;;;;;;;;;;;27.30;37.20;;;;;;4832639;28;45559;-64
2023/07/14 08:19:40;;;;;;;;;;;27.30;36.80;;;;;;4861238;28;45494;-64
2023/07/14 08:22:05;;;;;;;;;;;27.30;36.60;;;;;;4858763;28;45332;-64
2023/07/14 08:24:31;;;;;;;;;;;27.30;37.00;;;;;;4863192;28;45683;-64
2023/07/14 08:26:56;;;;;;;;;;;27.30;36.10;;;;;;4860286;28;45218;-64
2023/07/14 08:29:22;;;;;;;;;;;27.30;36.00;;;;;;4867505;29;45170;-64
2023/07/14 08:31:48;;;;;;;;;;;27.30;35.90;;;;;;4855890;28;45484;-64
2023/07/14 08:34:14;;;;;;;;;;;27.30;36.00;;;;;;4848717;29;46215;-64
2023/07/14 08:36:39;;;;;;;;;;;27.40;35.80;;;;;;4850007;28;45608;-64
2023/07/14 08:39:06;;;;;;;;;;;27.40;35.60;;;;;;4869285;28;45271;-63
2023/07/14 08:41:38;;;;;;;;;;;27.40;35.80;;;;;;4863564;28;44837;-65
2023/07/14 08:44:23;;;;;;;;;;;27.50;35.70;;;;;;4867116;29;45159;-65
2023/07/14 08:46:49;;;;;;;;;;;27.50;35.70;;;;;;4858613;28;45396;-64
2023/07/14 08:49:20;;;;;;;;;;;27.60;35.70;;;;;;4862276;28;44967;-64
2023/07/14 08:51:54;;;;;;;;;;;27.60;35.40;;;;;;4860598;28;45201;-64
2023/07/14 08:54:20;;;;;;;;;;;27.60;34.50;;;;;;4851316;29;46256;-64
2023/07/14 08:56:46;;;;;;;;;;;27.70;34.60;;;;;;4858052;29;44731;-64
2023/07/14 08:59:32;;;;;;;;;;;27.70;34.10;;;;;;4867243;28;44943;-64
2023/07/14 09:01:59;;;;;;;;;;;27.70;34.30;;;;;;4845056;28;45205;-63
2023/07/14 09:04:25;;;;;;;;;;;27.70;34.00;;;;;;4856961;28;45496;-64
2023/07/14 09:06:50;;;;;;;;;;;27.80;33.80;;;;;;4859474;28;45038;-64
2023/07/14 09:09:17;;;;;;;;;;;27.80;33.70;;;;;;4866833;28;45218;-63
2023/07/14 09:12:12;;;;;;;;;;;27.80;33.40;;;;;;4858327;29;44969;-64
2023/07/14 09:15:04;;;;;;;;;;;27.80;33.40;;;;;;4839884;28;45552;-64
2023/07/14 09:17:34;;;;;;;;;;;27.90;33.60;;;;;;4838164;28;45109;-65
2023/07/14 09:20:18;;;;;;;;;;;27.90;33.10;;;;;;4860036;28;45154;-64
2023/07/14 09:22:44;;;;;;;;;;;27.90;33.10;;;;;;4867042;28;45231;-64
2023/07/14 09:25:13;;;;;;;;;;;28.00;33.30;;;;;;4866171;28;45508;-64
2023/07/14 09:27:38;;;;;;;;;;;28.00;33.10;;;;;;4847364;28;45130;-64
2023/07/14 09:30:10;;;;;;;;;;;28.00;33.20;;;;;;4863807;29;45013;-64
2023/07/14 09:32:37;;;;;;;;;;;28.00;33.00;;;;;;4829327;28;45125;-64
2023/07/14 09:35:07;;;;;;;;;;;28.00;33.20;;;;;;4861757;28;46222;-65
2023/07/14 09:37:35;;;;;;;;;;;28.10;33.10;;;;;;4811072;29;45184;-64
2023/07/14 09:40:03;;;;;;;;;;;28.20;32.90;;;;;;4865278;28;45213;-64
2023/07/14 09:42:31;;;;;;;;;;;28.20;32.50;;;;;;4846082;29;45388;-64
2023/07/14 09:44:58;;;;;;;;;;;28.20;32.30;;;;;;4865395;28;45212;-64
2023/07/14 09:47:24;;;;;;;;;;;28.20;32.10;;;;;;4840358;29;44991;-64
2023/07/14 09:49:51;;;;;;;;;;;28.30;32.10;;;;;;4863871;29;45204;-64
2023/07/14 09:52:21;;;;;;;;;;;28.30;32.20;;;;;;4856233;29;45135;-64
2023/07/14 09:54:59;;;;;;;;;;;28.30;32.10;;;;;;4864370;28;45300;-64
2023/07/14 09:57:25;;;;;;;;;;;28.30;31.70;;;;;;4862423;29;45090;-64
2023/07/14 09:59:52;;;;;;;;;;;28.30;31.10;;;;;;4849556;28;45059;-64
2023/07/14 10:02:18;;;;;;;;;;;28.30;31.30;;;;;;4856906;29;45299;-64
2023/07/14 10:04:46;;;;;;;;;;;28.30;31.30;;;;;;4848354;29;47370;-65
2023/07/14 10:07:27;;;;;;;;;;;28.40;31.70;;;;;;4847519;29;45035;-65
2023/07/14 10:09:57;;;;;;;;;;;28.40;31.40;;;;;;4847730;29;46396;-64
2023/07/14 10:12:22;;;;;;;;;;;28.40;31.30;;;;;;4861180;29;45498;-64
2023/07/14 10:14:49;;;;;;;;;;;28.50;31.50;;;;;;4869263;29;45029;-64
2023/07/14 10:17:25;;;;;;;;;;;28.50;31.40;;;;;;4837331;29;46140;-64
2023/07/14 10:19:50;;;;;;;;;;;28.50;31.40;;;;;;4865071;28;45172;-63
2023/07/14 10:22:19;;;;;;;;;;;28.60;31.10;;;;;;4862411;29;45450;-64
2023/07/14 10:24:54;;;;;;;;;;;28.60;31.00;;;;;;4857466;29;46173;-64
2023/07/14 10:27:21;;;;;;;;;;;28.60;31.10;;;;;;4861689;29;45050;-64
2023/07/14 10:29:47;;;;;;;;;;;28.70;31.00;;;;;;4863069;29;45092;-64
2023/07/14 10:32:25;;;;;;;;;;;28.70;30.80;;;;;;4855888;29;45220;-65
2023/07/14 10:35:01;;;;;;;;;;;28.70;30.60;;;;;;4865911;29;46054;-64
2023/07/14 10:37:35;;;;;;;;;;;28.70;30.80;;;;;;4853287;29;44894;-64
2023/07/14 10:40:00;;;;;;;;;;;28.70;30.90;;;;;;4861736;29;45069;-63
2023/07/14 10:42:26;;;;;;;;;;;28.70;30.80;;;;;;4859015;29;45764;-64
2023/07/14 10:44:52;;;;;;;;;;;28.70;30.40;;;;;;4849523;29;46893;-64
2023/07/14 10:47:18;;;;;;;;;;;28.80;30.50;;;;;;4845670;29;45267;-64
2023/07/14 10:49:53;;;;;;;;;;;28.80;30.50;;;;;;4862460;29;45010;-64
2023/07/14 10:52:20;;;;;;;;;;;28.80;30.30;;;;;;4844549;29;46176;-64
2023/07/14 10:54:50;;;;;;;;;;;28.90;30.40;;;;;;4859052;29;45608;-64
2023/07/14 10:57:24;;;;;;;;;;;28.90;30.60;;;;;;4857442;29;45729;-64
2023/07/14 10:59:51;;;;;;;;;;;28.90;30.40;;;;;;4864387;29;45140;-64
2023/07/14 11:02:23;;;;;;;;;;;29.00;30.50;;;;;;4853433;29;45089;-64
2023/07/14 11:04:59;;;;;;;;;;;29.00;30.20;;;;;;4863888;29;45629;-64
2023/07/14 11:07:28;;;;;;;;;;;29.00;30.30;;;;;;4860737;29;45319;-65
2023/07/14 11:09:54;;;;;;;;;;;29.00;30.20;;;;;;4879299;29;44730;-64
2023/07/14 11:12:32;;;;;;;;;;;29.10;30.10;;;;;;4853749;29;45026;-64
2023/07/14 11:15:01;;;;;;;;;;;29.10;30.10;;;;;;4863920;29;45328;-64
2023/07/14 11:17:36;;;;;;;;;;;29.10;29.80;;;;;;4841904;29;44925;-64
2023/07/14 11:20:14;;;;;;;;;;;29.10;30.00;;;;;;4862839;29;45160;-64
2023/07/14 11:22:55;;;;;;;;;;;29.10;30.00;;;;;;4861674;29;45155;-64
2023/07/14 11:25:26;;;;;;;;;;;29.10;29.90;;;;;;4858004;29;45719;-64
2023/07/14 11:28:06;;;;;;;;;;;29.10;30.30;;;;;;4862134;28;44996;-64
2023/07/14 11:30:36;;;;;;;;;;;29.20;30.20;;;;;;4830305;29;45270;-64
2023/07/14 11:33:14;;;;;;;;;;;29.20;30.40;;;;;;4862662;29;45165;-64
2023/07/14 11:35:42;;;;;;;;;;;29.20;30.30;;;;;;4859315;28;45678;-64
2023/07/14 11:38:14;;;;;;;;;;;29.20;30.00;;;;;;4879479;28;45623;-65
2023/07/14 11:40:40;;;;;;;;;;;29.20;29.90;;;;;;4859879;29;45173;-64
2023/07/14 11:43:07;;;;;;;;;;;29.20;30.00;;;;;;4865232;29;44994;-64
2023/07/14 11:45:33;;;;;;;;;;;29.20;29.80;;;;;;4846773;29;47179;-65
2023/07/14 11:47:59;;;;;;;;;;;29.30;29.60;;;;;;4862649;29;45176;-64
2023/07/14 11:50:25;;;;;;;;;;;29.30;29.60;;;;;;4858300;29;45356;-64
2023/07/14 11:53:01;;;;;;;;;;;29.30;29.20;;;;;;4864074;29;45137;-64
2023/07/14 11:55:28;;;;;;;;;;;29.30;28.90;;;;;;4861624;29;45607;-65
2023/07/14 11:58:16;;;;;;;;;;;29.30;28.90;;;;;;4847774;29;45252;-64
2023/07/14 12:00:47;;;;;;;;;;;29.30;29.00;;;;;;4854193;28;45219;-64
2023/07/14 12:03:37;;;;;;;;;;;29.30;29.00;;;;;;4855691;29;45040;-64
2023/07/14 12:06:18;;;;;;;;;;;29.30;29.00;;;;;;4823436;28;45446;-64
2023/07/14 12:08:44;;;;;;;;;;;29.30;28.90;;;;;;4849554;28;45115;-64
2023/07/14 12:11:26;;;;;;;;;;;29.30;29.10;;;;;;4835477;28;45334;-65
2023/07/14 12:13:52;;;;;;;;;;;29.30;29.10;;;;;;4866097;28;45158;-64
2023/07/14 12:16:23;;;;;;;;;;;29.30;29.00;;;;;;4851807;28;45445;-65
2023/07/14 12:18:58;;;;;;;;;;;29.30;28.90;;;;;;4833198;28;45301;-65
2023/07/14 12:21:30;;;;;;;;;;;29.30;29.20;;;;;;4859444;28;45397;-65
2023/07/14 12:24:16;;;;;;;;;;;29.30;29.00;;;;;;4865071;28;45248;-65
2023/07/14 12:26:44;;;;;;;;;;;29.30;29.10;;;;;;4856686;28;48061;-65
2023/07/14 12:29:12;;;;;;;;;;;29.40;29.30;;;;;;4861710;28;45508;-65
2023/07/14 12:31:38;;;;;;;;;;;29.40;29.20;;;;;;4829971;28;45270;-65
2023/07/14 12:34:03;;;;;;;;;;;29.40;29.40;;;;;;4850798;29;45010;-65
2023/07/14 12:36:29;;;;;;;;;;;29.40;29.50;;;;;;4860642;28;44959;-64
2023/07/14 12:38:55;;;;;;;;;;;29.50;29.70;;;;;;4855732;29;45304;-65
2023/07/14 12:41:21;;;;;;;;;;;29.50;29.60;;;;;;4853067;28;45456;-65
2023/07/14 12:43:48;;;;;;;;;;;29.50;29.60;;;;;;4840420;28;46098;-65
2023/07/14 12:46:24;;;;;;;;;;;29.50;29.60;;;;;;4869743;28;47123;-65
2023/07/14 12:48:52;;;;;;;;;;;29.50;29.30;;;;;;4824410;28;46315;-65
2023/07/14 12:51:21;;;;;;;;;;;29.50;29.20;;;;;;4839264;29;45284;-65
2023/07/14 12:53:50;;;;;;;;;;;29.50;29.20;;;;;;4840393;28;45398;-65
2023/07/14 12:56:16;;;;;;;;;;;29.60;29.10;;;;;;4851019;28;45703;-65
2023/07/14 12:58:42;;;;;;;;;;;29.60;29.10;;;;;;4857244;28;45385;-65
2023/07/14 13:01:08;;;;;;;;;;;29.60;29.30;;;;;;4822182;29;45080;-65
2023/07/14 13:03:37;;;;;;;;;;;29.60;29.10;;;;;;4844585;29;45471;-67
2023/07/14 13:06:03;;;;;;;;;;;29.60;29.30;;;;;;4847136;29;47288;-66
2023/07/14 13:08:29;;;;;;;;;;;29.60;29.00;;;;;;4863489;29;45534;-66
2023/07/14 13:10:55;;;;;;;;;;;29.60;28.90;;;;;;4830437;29;45228;-67
2023/07/14 13:13:25;;;;;;;;;;;29.70;28.90;;;;;;4864152;29;45637;-66
2023/07/14 13:15:51;;;;;;;;;;;29.70;28.90;;;;;;4852275;29;46411;-67
2023/07/14 13:18:22;;;;;;;;;;;29.70;29.00;;;;;;4862762;29;44989;-68
2023/07/14 13:20:48;;;;;;;;;;;29.80;29.10;;;;;;4829886;29;45067;-67
2023/07/14 13:23:18;;;;;;;;;;;29.70;29.00;;;;;;4851555;29;45018;-68
2023/07/14 13:25:54;;;;;;;;;;;29.80;29.00;;;;;;4861018;29;45338;-68
2023/07/14 13:28:20;;;;;;;;;;;29.80;28.70;;;;;;4866187;29;45822;-67
2023/07/14 13:30:45;;;;;;;;;;;29.80;28.80;;;;;;4851860;29;45356;-68
2023/07/14 13:33:14;;;;;;;;;;;29.90;28.70;;;;;;4863384;29;45107;-67
2023/07/14 13:35:39;;;;;;;;;;;29.90;28.40;;;;;;4862746;29;45352;-67
2023/07/14 13:38:11;;;;;;;;;;;29.90;28.50;;;;;;4861051;29;45200;-67
2023/07/14 13:40:38;;;;;;;;;;;29.90;28.40;;;;;;4846235;29;45213;-67
2023/07/14 13:43:04;;;;;;;;;;;29.90;28.50;;;;;;4866919;29;45091;-67
2023/07/14 13:45:31;;;;;;;;;;;29.90;28.50;;;;;;4834064;29;47673;-68
2023/07/14 13:47:57;;;;;;;;;;;30.00;28.40;;;;;;4845810;29;45250;-67
2023/07/14 13:50:22;;;;;;;;;;;30.00;28.40;;;;;;4846450;29;45223;-68
2023/07/14 13:52:48;;;;;;;;;;;30.00;28.40;;;;;;4901618;23;45597;-66
2023/07/14 13:55:18;;;;;;;;;;;30.00;28.10;;;;;;4911901;28;45271;-64
2023/07/14 13:57:44;;;;;;;;;;;30.00;28.20;;;;;;4897943;28;44928;-66
2023/07/14 14:00:30;;;;;;;;;;;30.10;28.40;;;;;;4877075;28;44964;-67
2023/07/14 14:02:56;;;;;;;;;;;30.20;28.10;;;;;;4909055;28;45116;-64
2023/07/14 14:05:23;;;;;;;;;;;30.20;27.90;;;;;;4880654;28;45088;-66
2023/07/14 14:07:49;;;;;;;;;;;30.30;27.90;;;;;;4880241;28;45161;-65
2023/07/14 14:10:16;;;;;;;;;;;30.40;27.60;;;;;;4913368;28;45082;-65
2023/07/14 14:12:42;;;;;;;;;;;30.40;27.40;;;;;;4882660;28;45111;-65
2023/07/14 14:15:12;;;;;;;;;;;30.50;27.20;;;;;;4911090;28;45584;-66
2023/07/14 14:17:37;;;;;;;;;;;30.50;27.20;;;;;;4890355;28;45132;-63
2023/07/14 14:20:04;;;;;;;;;;;30.60;27.30;;;;;;4887579;28;44959;-67
2023/07/14 14:22:31;;;;;;;;;;;30.60;27.30;;;;;;4879586;28;44832;-64
2023/07/14 14:24:57;;;;;;;;;;;30.60;27.20;;;;;;4914091;28;46084;-65
2023/07/14 14:27:22;;;;;;;;;;;30.60;27.20;;;;;;4910241;28;45019;-64
2023/07/14 14:29:48;;;;;;;;;;;30.60;27.20;;;;;;4910391;28;45061;-63
2023/07/14 14:32:15;;;;;;;;;;;30.60;27.00;;;;;;4904527;28;45318;-65
2023/07/14 14:34:41;;;;;;;;;;;30.60;27.10;;;;;;4910393;28;45574;-65
2023/07/14 14:37:08;;;;;;;;;;;30.70;27.10;;;;;;4894161;28;44893;-66
2023/07/14 14:39:33;;;;;;;;;;;30.70;27.00;;;;;;4895683;28;44936;-64
2023/07/14 14:42:00;;;;;;;;;;;30.70;27.10;;;;;;4909100;28;45436;-65
2023/07/14 14:44:25;;;;;;;;;;;30.70;27.00;;;;;;4903570;28;45724;-64
2023/07/14 14:46:51;;;;;;;;;;;30.70;27.10;;;;;;4886872;28;45086;-66
2023/07/14 14:49:18;;;;;;;;;;;30.80;27.10;;;;;;4892095;28;44651;-66
2023/07/14 14:51:45;;;;;;;;;;;30.80;27.20;;;;;;4868787;28;44873;-66
2023/07/14 14:54:10;;;;;;;;;;;30.70;27.20;;;;;;4897578;28;45611;-67
2023/07/14 14:56:40;;;;;;;;;;;30.70;27.50;;;;;;4888361;28;45870;-67
2023/07/14 14:59:16;;;;;;;;;;;30.70;27.60;;;;;;4882871;28;45069;-68
2023/07/14 15:01:42;;;;;;;;;;;30.70;27.50;;;;;;4900235;28;44881;-66
2023/07/14 15:04:18;;;;;;;;;;;30.70;27.60;;;;;;4897462;28;45295;-67
2023/07/14 15:06:45;;;;;;;;;;;30.60;27.60;;;;;;4861862;28;45396;-68
2023/07/14 15:09:11;;;;;;;;;;;30.60;27.60;;;;;;4914784;28;45392;-68
2023/07/14 15:11:37;;;;;;;;;;;30.60;27.70;;;;;;4874891;28;44808;-67
2023/07/14 15:14:07;;;;;;;;;;;30.50;27.70;;;;;;4898384;28;45333;-68
2023/07/14 15:16:32;;;;;;;;;;;30.50;28.20;;;;;;4864059;28;44968;-68
2023/07/14 15:18:58;;;;;;;;;;;30.50;27.70;;;;;;4899122;28;45716;-67
2023/07/14 15:21:24;;;;;;;;;;;30.50;28.00;;;;;;4898759;28;45326;-67
2023/07/14 15:23:49;;;;;;;;;;;30.50;28.00;;;;;;4908963;28;45539;-68
2023/07/14 15:26:25;;;;;;;;;;;30.50;28.10;;;;;;4899476;28;45096;-67
2023/07/14 15:28:51;;;;;;;;;;;30.50;28.00;;;;;;4903855;28;44982;-67
2023/07/14 15:31:17;;;;;;;;;;;30.50;28.10;;;;;;4884793;28;44852;-67
2023/07/14 15:33:43;;;;;;;;;;;30.50;28.10;;;;;;4869328;28;45306;-67
2023/07/14 15:36:11;;;;;;;;;;;30.50;27.90;;;;;;4884868;28;45107;-67
2023/07/14 15:38:36;;;;;;;;;;;30.50;27.90;;;;;;4871792;28;45122;-67
2023/07/14 15:41:03;;;;;;;;;;;30.50;27.80;;;;;;4911140;28;45429;-68
2023/07/14 15:43:29;;;;;;;;;;;30.40;27.70;;;;;;4872790;28;46454;-67
2023/07/14 15:45:56;;;;;;;;;;;30.40;27.70;;;;;;4880538;29;45007;-67
2023/07/14 15:48:34;;;;;;;;;;;30.40;27.80;;;;;;4870706;28;45189;-67
2023/07/14 15:51:00;;;;;;;;;;;30.40;27.70;;;;;;4867730;28;45406;-67
2023/07/14 15:53:26;;;;;;;;;;;30.40;27.90;;;;;;4914421;28;45174;-66
2023/07/14 15:55:52;;;;;;;;;;;30.40;27.90;;;;;;4894173;28;45102;-67
2023/07/14 15:58:19;;;;;;;;;;;30.40;27.90;;;;;;4884888;28;45466;-68
2023/07/14 16:00:45;;;;;;;;;;;30.40;27.90;;;;;;4883662;28;44720;-68
2023/07/14 16:03:10;;;;;;;;;;;30.40;27.90;;;;;;4908071;28;45510;-67
2023/07/14 16:05:36;;;;;;;;;;;30.30;28.00;;;;;;4884872;28;45543;-67
2023/07/14 16:08:01;;;;;;;;;;;30.30;27.80;;;;;;4882419;28;44973;-67
2023/07/14 16:10:28;;;;;;;;;;;30.30;27.80;;;;;;4880054;28;45089;-68
2023/07/14 16:12:53;;;;;;;;;;;30.30;28.00;;;;;;4889615;29;46162;-68
2023/07/14 16:15:20;;;;;;;;;;;30.20;27.90;;;;;;4868772;28;45071;-69
2023/07/14 16:17:45;;;;;;;;;;;30.20;27.90;;;;;;4874493;28;44956;-67
2023/07/14 16:20:13;;;;;;;;;;;30.30;27.90;;;;;;4886211;28;45116;-67
2023/07/14 16:22:39;;;;;;;;;;;30.20;28.10;;;;;;4892985;28;46485;-67
2023/07/14 16:25:05;;;;;;;;;;;30.30;28.10;;;;;;4880412;28;44988;-69
2023/07/14 16:27:30;;;;;;;;;;;30.20;28.10;;;;;;4860284;28;44837;-68
2023/07/14 16:29:56;;;;;;;;;;;30.20;28.10;;;;;;4888087;28;45374;-68
2023/07/14 16:32:21;;;;;;;;;;;30.20;28.20;;;;;;4877206;28;46909;-67
2023/07/14 16:34:47;;;;;;;;;;;30.20;28.40;;;;;;4895512;28;45134;-67
2023/07/14 16:37:13;;;;;;;;;;;30.20;28.50;;;;;;4883819;28;45261;-67
2023/07/14 16:39:39;;;;;;;;;;;30.20;28.50;;;;;;4893947;28;44949;-67
2023/07/14 16:42:10;;;;;;;;;;;30.20;28.50;;;;;;4881247;28;45392;-67
2023/07/14 16:44:35;;;;;;;;;;;30.10;28.40;;;;;;4877975;28;44894;-67
2023/07/14 16:47:01;;;;;;;;;;;30.20;28.40;;;;;;4865257;28;44835;-67
2023/07/14 16:49:26;;;;;;;;;;;30.20;28.40;;;;;;4887255;28;45450;-67
2023/07/14 16:51:52;;;;;;;;;;;30.20;28.40;;;;;;4886152;28;46919;-67
2023/07/14 16:54:25;;;;;;;;;;;30.10;28.30;;;;;;4897041;28;44927;-67
2023/07/14 16:56:51;;;;;;;;;;;30.20;28.50;;;;;;4902925;28;44914;-67
2023/07/14 16:59:17;;;;;;;;;;;30.10;28.40;;;;;;4878173;28;45158;-68
2023/07/14 17:01:42;;;;;;;;;;;30.10;28.50;;;;;;4885972;28;45606;-67
2023/07/14 17:04:28;;;;;;;;;;;30.10;28.50;;;;;;4887958;28;44665;-67
2023/07/14 17:06:53;;;;;;;;;;;30.10;28.50;;;;;;4887889;28;45082;-67
2023/07/14 17:09:20;;;;;;;;;;;30.10;28.60;;;;;;4897272;28;45140;-67
2023/07/14 17:11:46;;;;;;;;;;;30.10;28.60;;;;;;4899834;28;45827;-67
2023/07/14 17:14:13;;;;;;;;;;;30.00;28.60;;;;;;4884086;28;44617;-67
2023/07/14 17:16:39;;;;;;;;;;;30.00;28.70;;;;;;4907229;28;44910;-67
2023/07/14 17:19:08;;;;;;;;;;;30.10;28.80;;;;;;4878138;28;44875;-68